Lockhart, South Carolina
Current Conditions -  °F | °C
As of 1:15 PM on Sunday 25 Jan 2015 (Local Time) from KDCM Reporting Station
Clear Clear  
Wind Chill: 57°   Ceiling: Unl
Heat Index: 57°   Visibility: 10mi
Dew Point: 28°   Wind: 7mph
Humidity: 33%   Direction: 170°S
Pressure: 29.87"   Gusts: NA
Location:  34.79°N, 81.46°W
Report Text: KDCM 251815Z AUTO 17006KT 140V210 10SM CLR 14/M02 A2987 RMK AO2
Loading
Personal Weather Stations






























Interactive Weather Map New forecast layout! Learn more

10-Day Weather Forecast

Advertisements
Track Severe Weather on mobile